sensor_id;sensor_type;location;lat;lon;timestamp;pressure;altitude;pressure_sealevel;temperature;humidity
44457;BME280;30159;49.316;8.558;2022-12-29T00:02:27;99864.03;;;10.39;94.18
44457;BME280;30159;49.316;8.558;2022-12-29T00:04:53;99863.50;;;10.42;93.94
44457;BME280;30159;49.316;8.558;2022-12-29T00:07:20;99868.66;;;10.39;93.12
44457;BME280;30159;49.316;8.558;2022-12-29T00:09:46;99873.09;;;10.48;93.16
44457;BME280;30159;49.316;8.558;2022-12-29T00:12:13;99866.81;;;10.53;93.15
44457;BME280;30159;49.316;8.558;2022-12-29T00:14:39;99852.69;;;10.42;92.94
44457;BME280;30159;49.316;8.558;2022-12-29T00:17:23;99869.50;;;10.53;93.18
44457;BME280;30159;49.316;8.558;2022-12-29T00:19:51;99825.50;;;10.39;92.27
44457;BME280;30159;49.316;8.558;2022-12-29T00:22:35;99865.06;;;10.62;93.59
44457;BME280;30159;49.316;8.558;2022-12-29T00:25:19;99864.28;;;10.62;92.47
44457;BME280;30159;49.316;8.558;2022-12-29T00:28:04;99855.22;;;10.71;93.16
44457;BME280;30159;49.316;8.558;2022-12-29T00:30:48;99867.03;;;10.75;92.31
44457;BME280;30159;49.316;8.558;2022-12-29T00:33:33;99875.56;;;10.83;92.33
44457;BME280;30159;49.316;8.558;2022-12-29T00:36:21;99869.13;;;10.79;92.93
44457;BME280;30159;49.316;8.558;2022-12-29T00:38:52;99853.25;;;10.77;92.15
44457;BME280;30159;49.316;8.558;2022-12-29T00:41:37;99856.25;;;10.75;92.45
44457;BME280;30159;49.316;8.558;2022-12-29T00:44:22;99869.88;;;10.84;92.15
44457;BME280;30159;49.316;8.558;2022-12-29T00:46:48;99868.81;;;10.99;91.87
44457;BME280;30159;49.316;8.558;2022-12-29T00:49:15;99841.19;;;10.88;91.01
44457;BME280;30159;49.316;8.558;2022-12-29T00:51:59;99804.34;;;10.65;91.13
44457;BME280;30159;49.316;8.558;2022-12-29T00:54:26;99873.47;;;11.12;90.34
44457;BME280;30159;49.316;8.558;2022-12-29T00:56:53;99870.16;;;11.15;90.04
44457;BME280;30159;49.316;8.558;2022-12-29T00:59:20;99873.38;;;11.17;89.69
44457;BME280;30159;49.316;8.558;2022-12-29T01:01:50;99871.78;;;11.16;89.68
44457;BME280;30159;49.316;8.558;2022-12-29T01:04:17;99870.44;;;11.14;89.80
44457;BME280;30159;49.316;8.558;2022-12-29T01:06:44;99849.84;;;11.04;90.03
44457;BME280;30159;49.316;8.558;2022-12-29T01:09:12;99882.00;;;11.33;89.48
44457;BME280;30159;49.316;8.558;2022-12-29T01:11:56;99875.00;;;11.32;89.59
44457;BME280;30159;49.316;8.558;2022-12-29T01:14:23;99855.78;;;11.20;89.96
44457;BME280;30159;49.316;8.558;2022-12-29T01:16:50;99873.38;;;11.17;92.17
44457;BME280;30159;49.316;8.558;2022-12-29T01:19:17;99872.47;;;11.22;95.49
44457;BME280;30159;49.316;8.558;2022-12-29T01:21:44;99875.81;;;11.33;96.70
44457;BME280;30159;49.316;8.558;2022-12-29T01:24:12;99867.53;;;11.43;95.80
44457;BME280;30159;49.316;8.558;2022-12-29T01:26:39;99863.13;;;11.47;95.92
44457;BME280;30159;49.316;8.558;2022-12-29T01:29:06;99870.63;;;11.50;96.60
44457;BME280;30159;49.316;8.558;2022-12-29T01:31:33;99872.66;;;11.58;96.94
44457;BME280;30159;49.316;8.558;2022-12-29T01:33:59;99859.56;;;11.66;95.88
44457;BME280;30159;49.316;8.558;2022-12-29T01:36:26;99855.53;;;11.77;95.72
44457;BME280;30159;49.316;8.558;2022-12-29T01:38:52;99860.63;;;11.78;95.57
44457;BME280;30159;49.316;8.558;2022-12-29T01:41:20;99867.16;;;11.77;96.59
44457;BME280;30159;49.316;8.558;2022-12-29T01:43:48;99863.06;;;11.80;96.76
44457;BME280;30159;49.316;8.558;2022-12-29T01:46:21;99872.63;;;11.86;97.76
44457;BME280;30159;49.316;8.558;2022-12-29T01:48:52;99880.19;;;11.89;98.11
44457;BME280;30159;49.316;8.558;2022-12-29T01:51:21;99866.69;;;11.89;97.83
44457;BME280;30159;49.316;8.558;2022-12-29T01:53:49;99877.09;;;11.96;98.39
44457;BME280;30159;49.316;8.558;2022-12-29T01:56:18;99848.44;;;11.81;98.80
44457;BME280;30159;49.316;8.558;2022-12-29T01:58:54;99869.78;;;11.96;100.00
44457;BME280;30159;49.316;8.558;2022-12-29T02:01:21;99862.44;;;11.83;100.00
44457;BME280;30159;49.316;8.558;2022-12-29T02:03:49;99861.94;;;11.81;100.00
44457;BME280;30159;49.316;8.558;2022-12-29T02:06:19;99848.03;;;11.60;100.00
44457;BME280;30159;49.316;8.558;2022-12-29T02:08:49;99863.03;;;11.66;100.00
44457;BME280;30159;49.316;8.558;2022-12-29T02:11:17;99856.03;;;11.65;100.00
44457;BME280;30159;49.316;8.558;2022-12-29T02:13:44;99855.22;;;11.65;100.00
44457;BME280;30159;49.316;8.558;2022-12-29T02:16:21;99856.25;;;11.69;100.00
44457;BME280;30159;49.316;8.558;2022-12-29T02:18:59;99848.66;;;11.71;100.00
44457;BME280;30159;49.316;8.558;2022-12-29T02:21:43;99849.44;;;11.71;100.00
44457;BME280;30159;49.316;8.558;2022-12-29T02:24:30;99858.84;;;11.74;100.00
44457;BME280;30159;49.316;8.558;2022-12-29T02:27:29;99860.63;;;11.78;100.00
44457;BME280;30159;49.316;8.558;2022-12-29T02:30:08;99855.44;;;11.82;100.00
44457;BME280;30159;49.316;8.558;2022-12-29T02:32:46;99854.25;;;11.88;100.00
44457;BME280;30159;49.316;8.558;2022-12-29T02:35:22;99854.84;;;11.85;100.00
44457;BME280;30159;49.316;8.558;2022-12-29T02:38:01;99864.53;;;11.86;100.00
44457;BME280;30159;49.316;8.558;2022-12-29T02:40:38;99855.94;;;11.84;100.00
44457;BME280;30159;49.316;8.558;2022-12-29T02:43:14;99849.84;;;11.78;100.00
44457;BME280;30159;49.316;8.558;2022-12-29T02:45:47;99839.25;;;11.68;100.00
44457;BME280;30159;49.316;8.558;2022-12-29T02:48:25;99839.81;;;11.51;100.00
44457;BME280;30159;49.316;8.558;2022-12-29T02:51:00;99838.91;;;11.42;100.00
44457;BME280;30159;49.316;8.558;2022-12-29T02:53:29;99833.50;;;11.28;100.00
44457;BME280;30159;49.316;8.558;2022-12-29T02:56:13;99839.59;;;11.34;100.00
44457;BME280;30159;49.316;8.558;2022-12-29T02:58:40;99837.69;;;11.34;100.00
44457;BME280;30159;49.316;8.558;2022-12-29T03:01:23;99843.31;;;11.38;100.00
44457;BME280;30159;49.316;8.558;2022-12-29T03:04:18;99814.41;;;11.25;100.00
44457;BME280;30159;49.316;8.558;2022-12-29T03:06:56;99836.19;;;11.42;100.00
44457;BME280;30159;49.316;8.558;2022-12-29T03:09:35;99843.03;;;11.53;100.00
44457;BME280;30159;49.316;8.558;2022-12-29T03:12:12;99833.22;;;11.71;100.00
44457;BME280;30159;49.316;8.558;2022-12-29T03:14:51;99830.63;;;11.80;100.00
44457;BME280;30159;49.316;8.558;2022-12-29T03:17:42;99829.22;;;11.82;100.00
44457;BME280;30159;49.316;8.558;2022-12-29T03:20:16;99828.44;;;11.82;100.00
44457;BME280;30159;49.316;8.558;2022-12-29T03:22:47;99808.09;;;11.85;100.00
44457;BME280;30159;49.316;8.558;2022-12-29T03:25:20;99811.41;;;11.95;100.00
44457;BME280;30159;49.316;8.558;2022-12-29T03:27:51;99812.41;;;11.99;100.00
44457;BME280;30159;49.316;8.558;2022-12-29T03:30:19;99789.78;;;11.81;100.00
44457;BME280;30159;49.316;8.558;2022-12-29T03:32:47;99761.59;;;11.46;100.00
44457;BME280;30159;49.316;8.558;2022-12-29T03:35:20;99779.69;;;11.73;100.00
44457;BME280;30159;49.316;8.558;2022-12-29T03:37:52;99788.97;;;11.81;100.00
44457;BME280;30159;49.316;8.558;2022-12-29T03:40:23;99788.41;;;11.84;100.00
44457;BME280;30159;49.316;8.558;2022-12-29T03:42:52;99783.00;;;11.84;100.00
44457;BME280;30159;49.316;8.558;2022-12-29T03:45:19;99774.97;;;11.79;100.00
44457;BME280;30159;49.316;8.558;2022-12-29T03:47:46;99777.00;;;11.87;100.00
44457;BME280;30159;49.316;8.558;2022-12-29T03:50:13;99770.19;;;11.90;100.00
44457;BME280;30159;49.316;8.558;2022-12-29T03:52:41;99772.78;;;11.95;100.00
44457;BME280;30159;49.316;8.558;2022-12-29T03:55:08;99773.50;;;12.00;100.00
44457;BME280;30159;49.316;8.558;2022-12-29T03:57:35;99770.66;;;12.06;100.00
44457;BME280;30159;49.316;8.558;2022-12-29T04:00:02;99760.81;;;12.10;100.00
44457;BME280;30159;49.316;8.558;2022-12-29T04:02:29;99760.81;;;12.10;100.00
44457;BME280;30159;49.316;8.558;2022-12-29T04:04:56;99758.94;;;12.10;100.00
44457;BME280;30159;49.316;8.558;2022-12-29T04:07:23;99752.72;;;12.10;100.00
44457;BME280;30159;49.316;8.558;2022-12-29T04:09:51;99746.72;;;12.13;100.00
44457;BME280;30159;49.316;8.558;2022-12-29T04:12:17;99751.63;;;12.11;100.00
44457;BME280;30159;49.316;8.558;2022-12-29T04:14:44;99744.50;;;12.15;99.62
44457;BME280;30159;49.316;8.558;2022-12-29T04:17:10;99741.09;;;12.09;98.32
44457;BME280;30159;49.316;8.558;2022-12-29T04:19:37;99737.91;;;12.07;99.24
44457;BME280;30159;49.316;8.558;2022-12-29T04:22:04;99742.88;;;12.14;98.56
44457;BME280;30159;49.316;8.558;2022-12-29T04:24:31;99736.97;;;12.12;97.66
44457;BME280;30159;49.316;8.558;2022-12-29T04:26:58;99727.16;;;12.16;98.14
44457;BME280;30159;49.316;8.558;2022-12-29T04:29:25;99741.69;;;12.20;97.49
44457;BME280;30159;49.316;8.558;2022-12-29T04:31:51;99734.66;;;12.19;97.29
44457;BME280;30159;49.316;8.558;2022-12-29T04:34:18;99733.28;;;12.21;96.42
44457;BME280;30159;49.316;8.558;2022-12-29T04:36:44;99733.16;;;12.27;96.47
44457;BME280;30159;49.316;8.558;2022-12-29T04:39:11;99733.31;;;12.30;95.10
44457;BME280;30159;49.316;8.558;2022-12-29T04:41:37;99734.44;;;12.29;95.30
44457;BME280;30159;49.316;8.558;2022-12-29T04:44:05;99736.63;;;12.27;95.38
44457;BME280;30159;49.316;8.558;2022-12-29T04:46:32;99736.63;;;12.27;94.02
44457;BME280;30159;49.316;8.558;2022-12-29T04:48:58;99733.38;;;12.39;94.61
44457;BME280;30159;49.316;8.558;2022-12-29T04:51:25;99730.69;;;12.39;92.82
44457;BME280;30159;49.316;8.558;2022-12-29T04:53:52;99745.00;;;12.39;92.29
44457;BME280;30159;49.316;8.558;2022-12-29T04:56:18;99737.63;;;12.31;92.46
44457;BME280;30159;49.316;8.558;2022-12-29T04:58:45;99742.28;;;12.39;92.81
44457;BME280;30159;49.316;8.558;2022-12-29T05:01:13;99732.72;;;12.33;92.25
44457;BME280;30159;49.316;8.558;2022-12-29T05:03:40;99749.63;;;12.39;92.54
44457;BME280;30159;49.316;8.558;2022-12-29T05:06:06;99752.94;;;12.36;92.16
44457;BME280;30159;49.316;8.558;2022-12-29T05:08:33;99747.81;;;12.34;93.38
44457;BME280;30159;49.316;8.558;2022-12-29T05:10:59;99753.06;;;12.31;92.55
44457;BME280;30159;49.316;8.558;2022-12-29T05:13:26;99756.34;;;12.28;92.50
44457;BME280;30159;49.316;8.558;2022-12-29T05:15:53;99747.66;;;12.31;91.56
44457;BME280;30159;49.316;8.558;2022-12-29T05:18:21;99748.44;;;12.31;92.54
44457;BME280;30159;49.316;8.558;2022-12-29T05:20:47;99746.84;;;12.30;91.76
44457;BME280;30159;49.316;8.558;2022-12-29T05:23:14;99748.56;;;12.26;92.68
44457;BME280;30159;49.316;8.558;2022-12-29T05:25:43;99745.25;;;12.29;92.94
44457;BME280;30159;49.316;8.558;2022-12-29T05:28:10;99740.47;;;12.26;93.21
44457;BME280;30159;49.316;8.558;2022-12-29T05:30:36;99738.06;;;12.25;93.58
44457;BME280;30159;49.316;8.558;2022-12-29T05:33:03;99745.00;;;12.17;93.23
44457;BME280;30159;49.316;8.558;2022-12-29T05:35:33;99736.16;;;12.25;94.29
44457;BME280;30159;49.316;8.558;2022-12-29T05:37:59;99725.63;;;12.23;93.01
44457;BME280;30159;49.316;8.558;2022-12-29T05:40:26;99741.44;;;12.30;93.10
44457;BME280;30159;49.316;8.558;2022-12-29T05:42:52;99734.94;;;12.31;93.29
44457;BME280;30159;49.316;8.558;2022-12-29T05:45:19;99735.44;;;12.33;93.87
44457;BME280;30159;49.316;8.558;2022-12-29T05:47:45;99742.66;;;12.24;93.76
44457;BME280;30159;49.316;8.558;2022-12-29T05:50:11;99741.56;;;12.25;94.04
44457;BME280;30159;49.316;8.558;2022-12-29T05:52:39;99737.63;;;12.31;93.15
44457;BME280;30159;49.316;8.558;2022-12-29T05:55:07;99734.44;;;12.29;92.86
44457;BME280;30159;49.316;8.558;2022-12-29T05:57:33;99735.06;;;12.26;92.82
44457;BME280;30159;49.316;8.558;2022-12-29T06:00:00;99734.66;;;12.19;93.09
44457;BME280;30159;49.316;8.558;2022-12-29T06:02:26;99746.25;;;12.33;92.34
44457;BME280;30159;49.316;8.558;2022-12-29T06:04:53;99741.44;;;12.30;92.35
44457;BME280;30159;49.316;8.558;2022-12-29T06:07:19;99727.16;;;12.16;92.63
44457;BME280;30159;49.316;8.558;2022-12-29T06:09:47;99740.94;;;12.28;92.51
44457;BME280;30159;49.316;8.558;2022-12-29T06:12:13;99738.56;;;12.27;92.70
44457;BME280;30159;49.316;8.558;2022-12-29T06:14:40;99734.00;;;12.36;91.18
44457;BME280;30159;49.316;8.558;2022-12-29T06:17:06;99725.81;;;12.27;90.79
44457;BME280;30159;49.316;8.558;2022-12-29T06:19:33;99729.03;;;12.29;91.87
44457;BME280;30159;49.316;8.558;2022-12-29T06:21:59;99726.81;;;12.31;91.14
44457;BME280;30159;49.316;8.558;2022-12-29T06:24:26;99694.34;;;12.09;91.23
44457;BME280;30159;49.316;8.558;2022-12-29T06:26:54;99720.41;;;12.27;91.54
44457;BME280;30159;49.316;8.558;2022-12-29T06:29:20;99716.91;;;12.27;90.54
44457;BME280;30159;49.316;8.558;2022-12-29T06:31:47;99726.44;;;12.24;91.13
44457;BME280;30159;49.316;8.558;2022-12-29T06:34:16;99718.34;;;12.24;90.87
44457;BME280;30159;49.316;8.558;2022-12-29T06:36:43;99714.22;;;12.27;91.26
44457;BME280;30159;49.316;8.558;2022-12-29T06:39:10;99708.44;;;12.19;90.50
44457;BME280;30159;49.316;8.558;2022-12-29T06:41:36;99704.81;;;12.24;89.61
44457;BME280;30159;49.316;8.558;2022-12-29T06:44:04;99686.19;;;12.22;90.50
44457;BME280;30159;49.316;8.558;2022-12-29T06:46:31;99691.78;;;12.26;89.74
44457;BME280;30159;49.316;8.558;2022-12-29T06:48:57;99698.78;;;12.27;90.57
44457;BME280;30159;49.316;8.558;2022-12-29T06:51:24;99690.53;;;12.32;90.74
44457;BME280;30159;49.316;8.558;2022-12-29T06:53:50;99702.16;;;12.33;89.96
44457;BME280;30159;49.316;8.558;2022-12-29T06:56:17;99698.97;;;12.31;91.25
44457;BME280;30159;49.316;8.558;2022-12-29T06:58:43;99703.41;;;12.27;90.53
44457;BME280;30159;49.316;8.558;2022-12-29T07:01:11;99705.06;;;12.36;89.79
44457;BME280;30159;49.316;8.558;2022-12-29T07:03:37;99713.03;;;12.41;89.82
44457;BME280;30159;49.316;8.558;2022-12-29T07:06:04;99715.38;;;12.34;90.32
44457;BME280;30159;49.316;8.558;2022-12-29T07:08:31;99716.50;;;12.33;89.95
44457;BME280;30159;49.316;8.558;2022-12-29T07:10:57;99713.88;;;12.28;90.65
44457;BME280;30159;49.316;8.558;2022-12-29T07:13:24;99716.59;;;12.28;89.96
44457;BME280;30159;49.316;8.558;2022-12-29T07:15:50;99708.81;;;12.27;90.08
44457;BME280;30159;49.316;8.558;2022-12-29T07:18:18;99722.63;;;12.25;90.78
44457;BME280;30159;49.316;8.558;2022-12-29T07:20:45;99715.25;;;12.17;90.85
44457;BME280;30159;49.316;8.558;2022-12-29T07:23:11;99728.09;;;12.11;91.31
44457;BME280;30159;49.316;8.558;2022-12-29T07:25:38;99714.50;;;12.02;91.11
44457;BME280;30159;49.316;8.558;2022-12-29T07:28:06;99724.38;;;12.07;90.60
44457;BME280;30159;49.316;8.558;2022-12-29T07:30:33;99614.41;;;11.35;90.42
44457;BME280;30159;49.316;8.558;2022-12-29T07:32:59;99728.88;;;12.12;90.36
44457;BME280;30159;49.316;8.558;2022-12-29T07:35:30;99731.03;;;12.23;89.61
44457;BME280;30159;49.316;8.558;2022-12-29T07:37:56;99733.03;;;12.32;89.65
44457;BME280;30159;49.316;8.558;2022-12-29T07:40:22;99729.53;;;12.31;88.68
44457;BME280;30159;49.316;8.558;2022-12-29T07:42:49;99726.97;;;12.35;89.00
44457;BME280;30159;49.316;8.558;2022-12-29T07:45:15;99731.59;;;12.34;89.24
44457;BME280;30159;49.316;8.558;2022-12-29T07:47:42;99737.13;;;12.29;88.21
44457;BME280;30159;49.316;8.558;2022-12-29T07:50:09;99727.13;;;12.30;88.75
44457;BME280;30159;49.316;8.558;2022-12-29T07:52:36;99730.31;;;12.32;88.80
44457;BME280;30159;49.316;8.558;2022-12-29T07:55:04;99728.31;;;12.23;89.04
44457;BME280;30159;49.316;8.558;2022-12-29T07:57:31;99735.53;;;12.28;88.68
44457;BME280;30159;49.316;8.558;2022-12-29T07:59:57;99738.72;;;12.30;89.10
44457;BME280;30159;49.316;8.558;2022-12-29T08:02:24;99735.16;;;12.21;89.19
44457;BME280;30159;49.316;8.558;2022-12-29T08:04:51;99739.47;;;12.22;89.68
44457;BME280;30159;49.316;8.558;2022-12-29T08:07:17;99725.09;;;12.13;89.75
44457;BME280;30159;49.316;8.558;2022-12-29T08:09:45;99741.31;;;12.13;89.43
44457;BME280;30159;49.316;8.558;2022-12-29T08:12:12;99750.00;;;12.10;89.67
44457;BME280;30159;49.316;8.558;2022-12-29T08:14:38;99752.66;;;12.23;88.71
44457;BME280;30159;49.316;8.558;2022-12-29T08:17:05;99742.03;;;12.27;88.84
44457;BME280;30159;49.316;8.558;2022-12-29T08:19:31;99752.13;;;12.35;88.57
44457;BME280;30159;49.316;8.558;2022-12-29T08:21:58;99758.22;;;12.41;88.05
44457;BME280;30159;49.316;8.558;2022-12-29T08:24:24;99767.06;;;12.55;87.14
44457;BME280;30159;49.316;8.558;2022-12-29T08:26:52;99764.66;;;12.54;87.99
44457;BME280;30159;49.316;8.558;2022-12-29T08:29:19;99766.94;;;12.60;87.45
44457;BME280;30159;49.316;8.558;2022-12-29T08:31:46;99777.56;;;12.79;87.04
44457;BME280;30159;49.316;8.558;2022-12-29T08:34:13;99785.94;;;12.92;85.43
44457;BME280;30159;49.316;8.558;2022-12-29T08:36:39;99761.13;;;12.98;85.29
44457;BME280;30159;49.316;8.558;2022-12-29T08:39:06;99792.19;;;13.01;85.86
44457;BME280;30159;49.316;8.558;2022-12-29T08:41:32;99785.50;;;13.07;85.42
44457;BME280;30159;49.316;8.558;2022-12-29T08:44:00;99777.94;;;13.18;84.07
44457;BME280;30159;49.316;8.558;2022-12-29T08:46:27;99786.06;;;13.18;84.26
44457;BME280;30159;49.316;8.558;2022-12-29T08:48:53;99778.59;;;13.23;83.89
44457;BME280;30159;49.316;8.558;2022-12-29T08:51:20;99777.88;;;13.32;84.33
44457;BME280;30159;49.316;8.558;2022-12-29T08:53:46;99779.31;;;13.38;83.71
44457;BME280;30159;49.316;8.558;2022-12-29T08:56:13;99783.31;;;13.40;83.21
44457;BME280;30159;49.316;8.558;2022-12-29T08:58:39;99782.38;;;13.45;82.03
44457;BME280;30159;49.316;8.558;2022-12-29T09:01:09;99792.72;;;13.43;82.37
44457;BME280;30159;49.316;8.558;2022-12-29T09:03:36;99789.25;;;13.51;82.25
44457;BME280;30159;49.316;8.558;2022-12-29T09:06:03;99780.47;;;13.54;83.21
44457;BME280;30159;49.316;8.558;2022-12-29T09:08:29;99777.31;;;13.61;82.38
44457;BME280;30159;49.316;8.558;2022-12-29T09:11:05;99778.91;;;13.62;82.18
44457;BME280;30159;49.316;8.558;2022-12-29T09:13:32;99787.00;;;13.53;82.71
44457;BME280;30159;49.316;8.558;2022-12-29T09:15:59;99784.00;;;13.63;82.74
44457;BME280;30159;49.316;8.558;2022-12-29T09:18:27;99796.78;;;13.72;83.18
44457;BME280;30159;49.316;8.558;2022-12-29T09:20:56;99803.69;;;13.78;82.72
44457;BME280;30159;49.316;8.558;2022-12-29T09:23:23;99789.56;;;13.58;81.85
44457;BME280;30159;49.316;8.558;2022-12-29T09:25:50;99803.16;;;13.67;83.76
44457;BME280;30159;49.316;8.558;2022-12-29T09:28:16;99809.03;;;13.60;84.59
44457;BME280;30159;49.316;8.558;2022-12-29T09:30:43;99798.09;;;13.34;85.96
44457;BME280;30159;49.316;8.558;2022-12-29T09:33:09;99811.81;;;13.38;86.29
44457;BME280;30159;49.316;8.558;2022-12-29T09:35:41;99826.63;;;13.32;86.09
44457;BME280;30159;49.316;8.558;2022-12-29T09:38:07;99830.31;;;13.36;86.76
44457;BME280;30159;49.316;8.558;2022-12-29T09:40:34;99816.13;;;13.39;87.55
44457;BME280;30159;49.316;8.558;2022-12-29T09:43:24;99823.97;;;13.49;87.37
44457;BME280;30159;49.316;8.558;2022-12-29T09:45:57;99835.09;;;13.39;87.60
44457;BME280;30159;49.316;8.558;2022-12-29T09:48:30;99826.34;;;13.42;87.17
44457;BME280;30159;49.316;8.558;2022-12-29T09:51:02;99842.25;;;13.35;88.60
44457;BME280;30159;49.316;8.558;2022-12-29T09:53:34;99839.81;;;13.33;89.43
44457;BME280;30159;49.316;8.558;2022-12-29T09:56:05;99847.41;;;13.22;89.40
44457;BME280;30159;49.316;8.558;2022-12-29T09:58:36;99851.22;;;13.21;90.10
44457;BME280;30159;49.316;8.558;2022-12-29T10:01:05;99840.16;;;13.32;90.95
44457;BME280;30159;49.316;8.558;2022-12-29T10:03:41;99844.44;;;13.33;89.50
44457;BME280;30159;49.316;8.558;2022-12-29T10:06:15;99846.06;;;13.34;89.17
44457;BME280;30159;49.316;8.558;2022-12-29T10:08:47;99841.66;;;13.24;89.21
44457;BME280;30159;49.316;8.558;2022-12-29T10:11:24;99834.31;;;13.38;89.96
44457;BME280;30159;49.316;8.558;2022-12-29T10:14:17;99828.75;;;13.43;90.42
44457;BME280;30159;49.316;8.558;2022-12-29T10:16:51;99833.72;;;13.50;89.52
44457;BME280;30159;49.316;8.558;2022-12-29T10:19:32;99832.72;;;13.46;90.06
44457;BME280;30159;49.316;8.558;2022-12-29T10:22:11;99842.53;;;13.64;88.99
44457;BME280;30159;49.316;8.558;2022-12-29T10:24:44;99844.09;;;13.57;89.77
44457;BME280;30159;49.316;8.558;2022-12-29T10:27:14;99822.28;;;13.31;90.61
44457;BME280;30159;49.316;8.558;2022-12-29T10:29:44;99838.16;;;13.46;91.75
44457;BME280;30159;49.316;8.558;2022-12-29T10:32:27;99836.31;;;13.33;91.24
44457;BME280;30159;49.316;8.558;2022-12-29T10:34:58;99833.53;;;13.24;92.28
44457;BME280;30159;49.316;8.558;2022-12-29T10:37:32;99849.38;;;13.31;91.82
44457;BME280;30159;49.316;8.558;2022-12-29T10:40:09;99845.88;;;13.30;93.19
44457;BME280;30159;49.316;8.558;2022-12-29T10:42:43;99850.50;;;13.30;92.67
44457;BME280;30159;49.316;8.558;2022-12-29T10:45:12;99854.06;;;13.39;91.57
44457;BME280;30159;49.316;8.558;2022-12-29T10:47:49;99843.53;;;13.37;89.99
44457;BME280;30159;49.316;8.558;2022-12-29T10:50:19;99844.44;;;13.33;89.98
44457;BME280;30159;49.316;8.558;2022-12-29T10:52:47;99839.53;;;13.35;90.91
44457;BME280;30159;49.316;8.558;2022-12-29T10:55:18;99844.44;;;13.33;90.20
44457;BME280;30159;49.316;8.558;2022-12-29T10:57:46;99850.38;;;13.35;89.77
44457;BME280;30159;49.316;8.558;2022-12-29T11:00:16;99852.41;;;13.29;89.80
44457;BME280;30159;49.316;8.558;2022-12-29T11:05:46;99850.56;;;13.16;89.91
44457;BME280;30159;49.316;8.558;2022-12-29T11:08:19;99847.06;;;13.15;90.88
44457;BME280;30159;49.316;8.558;2022-12-29T11:10:58;99838.25;;;13.10;91.82
44457;BME280;30159;49.316;8.558;2022-12-29T11:13:28;99841.00;;;13.18;91.51
44457;BME280;30159;49.316;8.558;2022-12-29T11:15:54;99833.66;;;13.10;92.11
44457;BME280;30159;49.316;8.558;2022-12-29T11:18:22;99845.72;;;13.04;91.75
44457;BME280;30159;49.316;8.558;2022-12-29T11:20:52;99849.41;;;13.08;92.58
44457;BME280;30159;49.316;8.558;2022-12-29T11:23:30;99849.13;;;13.18;93.63
44457;BME280;30159;49.316;8.558;2022-12-29T11:26:15;99858.97;;;13.37;91.93
44457;BME280;30159;49.316;8.558;2022-12-29T11:28:44;99856.72;;;13.61;91.86
44457;BME280;30159;49.316;8.558;2022-12-29T11:31:15;99850.84;;;13.77;89.51
44457;BME280;30159;49.316;8.558;2022-12-29T11:33:42;99861.75;;;13.94;90.10
44457;BME280;30159;49.316;8.558;2022-12-29T11:36:12;99852.69;;;13.99;88.58
44457;BME280;30159;49.316;8.558;2022-12-29T11:38:42;99854.91;;;14.05;87.83
44457;BME280;30159;49.316;8.558;2022-12-29T11:41:13;99864.81;;;14.10;87.32
44457;BME280;30159;49.316;8.558;2022-12-29T11:43:45;99853.97;;;14.10;86.48
44457;BME280;30159;49.316;8.558;2022-12-29T11:46:15;99851.91;;;14.16;85.23
44457;BME280;30159;49.316;8.558;2022-12-29T11:48:43;99863.22;;;14.09;84.33
44457;BME280;30159;49.316;8.558;2022-12-29T11:51:10;99859.22;;;14.06;84.78
44457;BME280;30159;49.316;8.558;2022-12-29T11:53:42;99864.78;;;13.93;83.35
44457;BME280;30159;49.316;8.558;2022-12-29T11:56:11;99741.84;;;13.00;84.46
44457;BME280;30159;49.316;8.558;2022-12-29T11:58:38;99856.88;;;13.65;84.90
44457;BME280;30159;49.316;8.558;2022-12-29T12:01:09;99694.03;;;12.55;84.36
44457;BME280;30159;49.316;8.558;2022-12-29T12:03:42;99824.47;;;13.51;85.54
44457;BME280;30159;49.316;8.558;2022-12-29T12:06:12;99815.69;;;13.45;84.78
44457;BME280;30159;49.316;8.558;2022-12-29T12:08:47;99840.91;;;13.55;85.46
44457;BME280;30159;49.316;8.558;2022-12-29T12:11:19;99857.94;;;13.55;85.05
44457;BME280;30159;49.316;8.558;2022-12-29T12:13:55;99838.00;;;13.51;85.52
44457;BME280;30159;49.316;8.558;2022-12-29T12:16:28;99835.03;;;13.61;86.05
44457;BME280;30159;49.316;8.558;2022-12-29T12:19:02;99840.16;;;13.72;86.14
44457;BME280;30159;49.316;8.558;2022-12-29T12:21:33;99846.22;;;13.68;85.96
44457;BME280;30159;49.316;8.558;2022-12-29T12:24:21;99830.91;;;13.73;87.51
44457;BME280;30159;49.316;8.558;2022-12-29T12:26:58;99842.38;;;13.69;87.88
44457;BME280;30159;49.316;8.558;2022-12-29T12:29:33;99837.16;;;13.82;87.59
44457;BME280;30159;49.316;8.558;2022-12-29T12:32:04;99846.75;;;13.88;87.93
44457;BME280;30159;49.316;8.558;2022-12-29T12:34:39;99834.97;;;14.01;87.03
44457;BME280;30159;49.316;8.558;2022-12-29T12:40:34;99842.38;;;14.44;85.97
44457;BME280;30159;49.316;8.558;2022-12-29T12:43:12;99827.38;;;14.56;85.37
44457;BME280;30159;49.316;8.558;2022-12-29T12:45:51;99830.88;;;14.30;84.76
44457;BME280;30159;49.316;8.558;2022-12-29T12:48:36;99820.66;;;14.27;85.52
44457;BME280;30159;49.316;8.558;2022-12-29T12:51:13;99811.88;;;14.21;84.41
44457;BME280;30159;49.316;8.558;2022-12-29T12:53:53;99806.13;;;14.14;85.46
44457;BME280;30159;49.316;8.558;2022-12-29T12:56:41;99816.63;;;13.89;84.72
44457;BME280;30159;49.316;8.558;2022-12-29T12:59:18;99815.44;;;13.64;88.80
44457;BME280;30159;49.316;8.558;2022-12-29T13:02:01;99847.03;;;13.38;94.80
44457;BME280;30159;49.316;8.558;2022-12-29T13:04:43;99862.31;;;13.11;100.00
44457;BME280;30159;49.316;8.558;2022-12-29T13:07:20;99867.94;;;12.92;100.00
44457;BME280;30159;49.316;8.558;2022-12-29T13:10:00;99856.28;;;12.69;100.00
44457;BME280;30159;49.316;8.558;2022-12-29T13:12:36;99842.03;;;12.55;100.00
44457;BME280;30159;49.316;8.558;2022-12-29T13:15:21;99839.59;;;12.53;100.00
44457;BME280;30159;49.316;8.558;2022-12-29T13:18:02;99827.13;;;12.43;100.00
44457;BME280;30159;49.316;8.558;2022-12-29T13:20:36;99828.28;;;12.51;100.00
44457;BME280;30159;49.316;8.558;2022-12-29T13:23:11;99828.94;;;12.71;100.00